aerodrome LA FERTE GAUCHER, LFFG, pilots, aviation, flying | pilotspace.eu

LA FERTE GAUCHER

aerodrome LA FERTE GAUCHER

ICAO/ID: LFFG
France
web: Réservé au parachutisme et aux avions de servitude
show on the map

LFPM 020030Z AUTO 27013KT 6000 -RA FEW008/// SCT015/// BKN022/// ///TCU 08/07 Q1006

TAF LFPG 012300Z 0200/0306 27015G30KT 9999 BKN020 PROB40 TEMPO 0200/0217 4000 -SHRA FEW016TCU PROB40 TEMPO 0211/0216 28020G35KT 2500 SHRA SCT020CB BECMG 0217/0219 SCT030 TX09/0214Z TN03/0306Z

general information

altitude: 538 ft
latitude: 48 45 21 N
longitude: 003 16 36 E

traffic information

RWY: 05/23: 3,609 ft (1,100 m) — surface unknown
report copyright

Online pilot logbook: free for each registered member! http://www.pilotlogbook.eu


last flights

RECENTLY ADDED

zimni VFR s OK-JOR

zimni VFR s OK-JOR

21/02/2015 (7x)

FilM

lítání je žrádlo, řekl kdysi můj kolega...

lítání je žrádlo, řekl k ...

01/02/2015 (43x)

Carlos K2

Etna

Etna

10/01/2015 (37x)

lukin

Vianoce 2014

Vianoce 2014

09/01/2015 (6x)

Jenki

Sitno December 2014

Sitno December 2014

09/01/2015 (13x)

Jenki

ULRBK fotos

ULRBK fotos

25/12/2014 (8x)

northwolf

The Cheyenne

The Cheyenne

21/11/2014 (33x)

lukin

Beauty Kunovice

Beauty Kunovice

14/10/2014 (18x)

Jenki